Time;durP1;ratioP1;P1;durP2;ratioP2;P2;SDS_P1;SDS_P2;PMS_P1;PMS_P2;Temp;Humidity;BMP_temperature;BMP_pressure;BME280_temperature;BME280_humidity;BME280_pressure;Samples;Min_cycle;Max_cycle;Signal;HPM_P1;HPM_P2
2022/11/22 00:00:40;;;;;;;89.62;49.63;;;;;;;-0.15;100.00;97939.78;4209170;82;21075;-85
2022/11/22 00:06:50;;;;;;;88.45;45.75;;;;;;;-0.23;100.00;97938.75;4207588;83;21075;-85
2022/11/22 00:12:53;;;;;;;80.77;43.08;;;;;;;-0.32;100.00;97928.63;4248357;82;21061;-85
2022/11/22 00:18:56;;;;;;;60.83;34.63;;;;;;;-0.37;100.00;97940.13;4222222;82;21060;-86
2022/11/22 00:25:01;;;;;;;70.78;38.95;;;;;;;-0.44;100.00;97942.58;4234263;82;21016;-86
2022/11/22 00:31:03;;;;;;;56.63;33.43;;;;;;;-0.36;100.00;97955.94;4208362;82;21020;-84
2022/11/22 00:37:04;;;;;;;60.55;35.60;;;;;;;-0.40;100.00;97950.20;4343250;80;21026;-85
2022/11/22 00:43:06;;;;;;;56.53;31.05;;;;;;;-0.48;100.00;97955.88;4208020;82;21564;-86
2022/11/22 00:49:08;;;;;;;44.83;26.23;;;;;;;-0.64;100.00;97959.49;4256422;81;21060;-86
2022/11/22 00:55:09;;;;;;;47.73;28.40;;;;;;;-0.66;100.00;97954.99;4280948;81;21049;-86
2022/11/22 01:01:10;;;;;;;63.28;35.08;;;;;;;-0.58;100.00;97953.57;4273720;81;21318;-85
2022/11/22 01:07:20;;;;;;;62.13;34.70;;;;;;;-0.83;100.00;97968.55;4186391;83;22002;-86
2022/11/22 01:13:26;;;;;;;71.07;38.58;;;;;;;-0.84;100.00;97967.75;4202609;82;21081;-86
2022/11/22 01:19:27;;;;;;;83.17;44.97;;;;;;;-0.90;100.00;97962.34;4218118;82;21024;-85
2022/11/22 01:25:30;;;;;;;62.98;35.85;;;;;;;-0.93;100.00;97985.02;4236236;83;21008;-85
2022/11/22 01:38:36;;;;;;;77.80;38.88;;;;;;;-1.03;100.00;97982.70;4198138;82;21036;-84
2022/11/22 01:44:42;;;;;;;64.77;34.60;;;;;;;-1.21;100.00;97982.01;4200320;81;22138;-84
2022/11/22 01:50:45;;;;;;;;;;;;;;;-1.36;100.00;97972.36;4265412;81;21078;-85
2022/11/22 01:56:53;;;;;;;66.90;37.33;;;;;;;-1.44;100.00;97975.86;4196837;83;20166;-83
2022/11/22 02:03:10;;;;;;;71.77;40.80;;;;;;;-1.49;100.00;97963.41;4222920;82;21096;-85
2022/11/22 02:09:12;;;;;;;63.20;33.58;;;;;;;-1.53;100.00;97963.80;4240682;83;21034;-83
2022/11/22 02:15:13;;;;;;;78.02;38.42;;;;;;;-1.68;100.00;97954.94;4230107;82;21007;-83
2022/11/22 02:21:15;;;;;;;122.90;53.20;;;;;;;-1.72;100.00;97940.03;4229621;83;21041;-83
2022/11/22 02:27:17;;;;;;;97.63;45.17;;;;;;;-1.82;100.00;97949.75;4213702;82;21052;-84
2022/11/22 02:33:18;;;;;;;79.10;40.93;;;;;;;-1.90;100.00;97940.40;4227062;82;21107;-83
2022/11/22 02:39:25;;;;;;;87.45;43.20;;;;;;;-1.97;100.00;97934.72;4278976;81;21063;-82
2022/11/22 02:45:27;;;;;;;79.23;39.00;;;;;;;-1.92;100.00;97934.56;4224122;81;21063;-83
2022/11/22 02:51:28;;;;;;;90.23;42.37;;;;;;;-1.86;100.00;97938.64;4260687;80;20998;-83
2022/11/22 02:57:30;;;;;;;100.17;46.27;;;;;;;-1.97;100.00;97921.31;4242503;81;21014;-84
2022/11/22 03:03:32;;;;;;;80.50;39.73;;;;;;;-2.12;100.00;97915.13;4253968;81;21893;-82
2022/11/22 03:09:33;;;;;;;73.90;39.63;;;;;;;-2.26;100.00;97931.94;4258727;81;21504;-83
2022/11/22 03:15:35;;;;;;;75.10;37.58;;;;;;;-2.22;100.00;97928.30;4245842;82;21065;-82
2022/11/22 03:21:38;;;;;;;71.53;37.13;;;;;;;-2.24;100.00;97927.83;4252532;82;21024;-82
2022/11/22 03:27:39;;;;;;;87.80;41.97;;;;;;;-2.31;100.00;97926.73;4214902;81;21051;-82
2022/11/22 03:33:41;;;;;;;76.80;38.88;;;;;;;-2.32;100.00;97929.19;4239374;82;21017;-81
2022/11/22 03:39:42;;;;;;;81.20;39.47;;;;;;;-2.38;100.00;97915.15;4270096;81;20974;-83
2022/11/22 03:45:45;;;;;;;88.53;38.43;;;;;;;-2.60;100.00;97920.67;4240872;81;21055;-81
2022/11/22 03:51:47;;;;;;;76.90;37.20;;;;;;;-2.63;100.00;97907.91;4247673;82;21029;-81
2022/11/22 03:57:48;;;;;;;73.27;33.47;;;;;;;-2.68;100.00;97909.43;4241162;82;21048;-81
2022/11/22 04:03:51;;;;;;;78.23;38.70;;;;;;;-2.73;100.00;97914.94;4241318;81;21363;-81
2022/11/22 04:09:52;;;;;;;85.27;39.63;;;;;;;-2.81;100.00;97911.70;4252890;82;21026;-80
2022/11/22 04:15:58;;;;;;;86.67;40.23;;;;;;;-2.91;100.00;97909.31;4284213;82;21090;-80
2022/11/22 04:21:59;;;;;;;81.20;39.85;;;;;;;-2.91;100.00;97911.99;4244962;82;21028;-80
2022/11/22 04:28:01;;;;;;;75.33;36.40;;;;;;;-2.92;100.00;97901.05;4199447;81;21019;-81
2022/11/22 04:34:03;;;;;;;64.23;33.73;;;;;;;-2.98;100.00;97905.53;4219812;81;1771960;-81
2022/11/22 04:40:06;;;;;;;76.07;34.87;;;;;;;-2.98;100.00;97910.34;4198711;83;20984;-81
2022/11/22 04:46:07;;;;;;;71.33;34.00;;;;;;;-2.89;100.00;97902.30;4242735;82;21066;-81
2022/11/22 04:58:28;;;;;;;73.03;36.13;;;;;;;-2.90;100.00;97900.73;4188705;83;21706;-79
2022/11/22 05:04:30;;;;;;;70.07;33.23;;;;;;;-3.06;100.00;97895.05;4252745;81;21142;-80
2022/11/22 05:10:55;;;;;;;63.77;31.83;;;;;;;-3.14;100.00;97905.20;4220919;83;21071;-80
2022/11/22 05:16:35;;;;;;;70.37;32.50;;;;;;;-3.07;100.00;97905.53;4184691;83;20979;-80
2022/11/22 05:29:06;;;;;;;59.57;31.63;;;;;;;-3.08;100.00;97903.14;4176113;83;22098;-80
2022/11/22 05:35:08;;;;;;;63.00;31.10;;;;;;;-3.08;100.00;97912.52;4210600;83;21000;-80
2022/11/22 05:41:12;;;;;;;89.27;39.23;;;;;;;-3.05;100.00;97911.34;4199563;82;22171;-80
2022/11/22 05:47:14;;;;;;;81.97;38.07;;;;;;;-3.09;100.00;97898.90;4211717;82;20995;-81
2022/11/22 05:53:15;;;;;;;78.27;37.83;;;;;;;-3.14;100.00;97902.52;4211820;83;21055;-80
2022/11/22 05:59:16;;;;;;;92.53;40.07;;;;;;;-3.22;100.00;97916.12;4194119;83;20979;-80
2022/11/22 06:05:17;;;;;;;92.33;37.40;;;;;;;-3.21;100.00;97910.23;4186656;83;21063;-80
2022/11/22 06:11:24;;;;;;;103.10;41.60;;;;;;;-3.21;100.00;97920.37;4253133;81;21065;-80
2022/11/22 06:17:25;;;;;;;77.60;35.57;;;;;;;-3.15;100.00;97917.02;4229660;82;21079;-80
2022/11/22 06:23:27;;;;;;;102.77;41.20;;;;;;;-3.22;100.00;97927.37;4288105;81;21015;-80
2022/11/22 06:29:29;;;;;;;80.60;36.10;;;;;;;-3.16;100.00;97926.13;4199617;83;21606;-80
2022/11/22 06:35:30;;;;;;;90.27;38.43;;;;;;;-3.18;100.00;97933.70;4204043;82;21959;-80
2022/11/22 06:41:35;;;;;;;90.70;37.17;;;;;;;-3.15;100.00;97938.42;4210676;82;21041;-81
2022/11/22 06:47:36;;;;;;;88.57;40.67;;;;;;;-3.13;100.00;97944.23;4205752;83;21357;-80
2022/11/22 06:53:38;;;;;;;102.90;41.47;;;;;;;-3.12;100.00;97945.83;4272520;81;21103;-81
2022/11/22 06:59:39;;;;;;;92.03;39.87;;;;;;;-3.14;100.00;97937.86;4278895;81;20971;-81
2022/11/22 07:05:50;;;;;;;88.33;39.07;;;;;;;-3.08;100.00;97949.98;4257934;81;20984;-80
2022/11/22 07:11:51;;;;;;;102.83;44.20;;;;;;;-3.04;100.00;97947.75;4176305;82;21043;-81
2022/11/22 07:17:52;;;;;;;132.30;66.83;;;;;;;-2.86;100.00;97952.56;4264861;82;21019;-81
2022/11/22 07:23:54;;;;;;;122.13;61.07;;;;;;;-2.58;100.00;97964.02;4202528;83;21143;-82
2022/11/22 07:29:56;;;;;;;106.30;55.77;;;;;;;-2.14;100.00;97969.61;4228706;82;21017;-82
2022/11/22 07:36:13;;;;;;;81.67;41.80;;;;;;;-1.56;100.00;97967.13;4170263;83;21431;-81
2022/11/22 07:42:14;;;;;;;63.13;35.13;;;;;;;-1.06;100.00;97949.77;4205680;83;21019;-83
2022/11/22 07:48:21;;;;;;;67.17;36.25;;;;;;;-0.54;100.00;97945.10;4261531;82;20986;-83
2022/11/22 07:54:23;;;;;;;51.20;28.70;;;;;;;0.11;100.00;97957.04;4237370;81;21847;-83
2022/11/22 08:00:25;;;;;;;53.30;27.80;;;;;;;0.40;100.00;97956.33;4201424;83;21038;-84
2022/11/22 08:06:26;;;;;;;54.58;29.50;;;;;;;0.60;100.00;97956.02;4200319;82;21042;-84
2022/11/22 08:12:28;;;;;;;59.53;29.95;;;;;;;0.60;100.00;97956.02;4269125;81;21047;-84
2022/11/22 08:18:29;;;;;;;69.62;36.48;;;;;;;0.96;100.00;97962.78;4228621;81;21020;-84
2022/11/22 08:24:30;;;;;;;58.13;28.15;;;;;;;1.61;100.00;97955.75;4222682;81;20990;-84
2022/11/22 08:30:32;;;;;;;57.40;28.77;;;;;;;1.57;100.00;97958.89;4231073;81;20994;-85
2022/11/22 08:36:33;;;;;;;55.63;29.95;;;;;;;1.45;100.00;97962.97;4247871;81;21007;-84
2022/11/22 08:42:34;;;;;;;62.53;32.83;;;;;;;1.08;100.00;97983.77;4247192;82;21058;-84
2022/11/22 08:48:37;;;;;;;66.10;34.15;;;;;;;0.76;100.00;97987.36;4165020;83;21663;-84
2022/11/22 08:54:38;;;;;;;75.67;38.28;;;;;;;0.72;100.00;97989.72;4220894;83;21117;-84
2022/11/22 09:00:40;;;;;;;68.47;36.65;;;;;;;0.77;100.00;97990.27;4153907;84;21021;-85
2022/11/22 09:06:47;;;;;;;67.32;36.98;;;;;;;1.11;100.00;97985.03;4195821;83;21079;-85
2022/11/22 09:12:50;;;;;;;66.95;36.33;;;;;;;1.61;100.00;97968.66;4258372;81;21455;-85
2022/11/22 09:18:52;;;;;;;63.17;35.20;;;;;;;2.43;100.00;97978.45;4262375;81;21159;-86
2022/11/22 09:24:57;;;;;;;58.83;33.70;;;;;;;3.25;100.00;97972.03;4275828;81;21878;-86
2022/11/22 09:31:18;;;;;;;60.03;35.83;;;;;;;3.72;100.00;97963.23;4265038;81;21002;-85
2022/11/22 09:37:20;;;;;;;59.00;34.75;;;;;;;4.18;100.00;97967.66;4271231;82;21085;-86
2022/11/22 09:43:50;;;;;;;58.78;34.83;;;;;;;4.71;100.00;97961.28;4253666;81;20989;-86
2022/11/22 09:50:32;;;;;;;54.53;32.50;;;;;;;5.18;100.00;97956.86;4206540;83;21076;-87
2022/11/22 09:56:36;;;;;;;55.15;32.42;;;;;;;5.40;100.00;97946.53;4223621;83;21048;-86
2022/11/22 10:02:42;;;;;;;51.45;30.30;;;;;;;5.68;100.00;97943.42;4216735;82;22353;-87
2022/11/22 10:09:26;;;;;;;50.23;30.70;;;;;;;5.87;100.00;97939.24;4260817;81;20997;-87
2022/11/22 10:15:50;;;;;;;50.15;30.68;;;;;;;5.93;100.00;97937.77;4163049;83;21535;-86
2022/11/22 10:21:52;;;;;;;47.03;28.25;;;;;;;6.13;100.00;97931.02;4223493;82;21663;-87
2022/11/22 10:27:58;;;;;;;48.98;28.38;;;;;;;6.26;100.00;97922.22;4233710;82;21020;-87
2022/11/22 10:34:31;;;;;;;52.33;29.90;;;;;;;6.51;100.00;97914.34;4266380;81;21016;-87
2022/11/22 10:40:58;;;;;;;48.13;28.07;;;;;;;6.71;100.00;97919.77;4203292;83;21532;-87
2022/11/22 10:47:13;;;;;;;44.43;27.40;;;;;;;6.86;100.00;97911.92;4202412;83;21483;-86
2022/11/22 10:53:35;;;;;;;45.55;28.95;;;;;;;6.97;100.00;97907.36;4204815;84;20994;-88
2022/11/22 11:06:57;;;;;;;44.85;27.93;;;;;;;6.90;100.00;97888.84;4204878;82;21575;-90
2022/11/22 11:13:20;;;;;;;41.33;27.13;;;;;;;6.65;100.00;97885.92;4188249;83;21057;-88
2022/11/22 11:19:29;;;;;;;41.63;26.37;;;;;;;6.57;100.00;97878.06;4200793;82;21010;-89
2022/11/22 11:25:41;;;;;;;42.15;27.17;;;;;;;6.64;100.00;97882.98;4165669;83;21036;-89
2022/11/22 11:38:47;;;;;;;44.67;27.95;;;;;;;6.42;100.00;97881.25;4078743;86;21432;-87
2022/11/22 11:51:56;;;;;;;39.03;24.67;;;;;;;6.46;100.00;97864.95;4148761;85;21218;-87
2022/11/22 11:58:20;;;;;;;28.38;17.85;;;;;;;6.35;100.00;97863.50;4278673;81;21055;-86
2022/11/22 12:04:25;;;;;;;41.77;24.63;;;;;;;6.34;100.00;97866.78;4275588;81;21018;-88
2022/11/22 12:10:50;;;;;;;36.53;23.30;;;;;;;6.24;100.00;97870.77;4245982;82;21107;-87
2022/11/22 12:24:43;;;;;;;38.53;20.15;;;;;;;6.12;100.00;97865.61;4097362;85;21031;-87
2022/11/22 12:38:02;;;;;;;29.70;18.32;;;;;;;6.20;100.00;97845.51;4150532;85;21152;-86
2022/11/22 12:44:08;;;;;;;32.23;17.87;;;;;;;6.08;100.00;97849.27;4150155;84;21158;-89
2022/11/22 12:50:17;;;;;;;28.50;17.00;;;;;;;6.07;100.00;97836.05;4158177;83;21107;-87
2022/11/22 12:56:26;;;;;;;30.12;16.93;;;;;;;6.01;100.00;97823.36;4204790;82;21001;-88
2022/11/22 13:02:42;;;;;;;31.70;17.25;;;;;;;5.94;100.00;97827.95;4176452;83;21067;-86
2022/11/22 13:15:36;;;;;;;21.85;13.20;;;;;;;5.88;100.00;97834.30;4200615;83;21086;-86
2022/11/22 13:22:08;;;;;;;19.87;12.03;;;;;;;5.88;100.00;97830.23;4197622;83;21072;-87
2022/11/22 13:28:18;;;;;;;24.72;13.62;;;;;;;5.82;100.00;97830.36;4172212;83;22098;-88
2022/11/22 13:34:25;;;;;;;26.15;15.38;;;;;;;5.76;100.00;97842.66;4263957;81;21583;-87
2022/11/22 13:40:41;;;;;;;24.45;13.53;;;;;;;5.60;100.00;97838.59;4232774;82;21060;-86
2022/11/22 13:46:56;;;;;;;25.00;13.60;;;;;;;5.43;100.00;97839.16;4195750;83;21061;-87
2022/11/22 13:52:59;;;;;;;27.85;16.23;;;;;;;5.22;99.99;97834.80;4195741;83;21040;-87
2022/11/22 13:59:17;;;;;;;26.02;14.98;;;;;;;5.09;100.00;97828.05;4170897;83;22030;-87
2022/11/22 14:05:35;;;;;;;31.25;17.42;;;;;;;5.01;100.00;97827.17;4168019;83;21003;-87
2022/11/22 14:11:42;;;;;;;26.00;15.50;;;;;;;4.92;99.81;97822.56;4243612;81;21074;-87
2022/11/22 14:18:16;;;;;;;31.05;15.70;;;;;;;4.84;99.72;97813.55;4189233;83;21959;-87
2022/11/22 14:24:44;;;;;;;44.03;20.75;;;;;;;4.76;99.77;97810.52;4159015;83;21018;-87
2022/11/22 14:30:50;;;;;;;39.18;19.35;;;;;;;4.70;99.94;97822.83;4189539;83;20996;-87
2022/11/22 14:37:15;;;;;;;36.40;17.35;;;;;;;4.64;99.95;97832.98;4190974;83;21056;-86
2022/11/22 14:43:30;;;;;;;58.23;23.80;;;;;;;4.60;100.00;97844.36;4256587;81;20995;-87
2022/11/22 14:49:43;;;;;;;67.85;24.12;;;;;;;4.57;100.00;97844.49;4262798;81;21014;-88
2022/11/22 15:17:29;;;;;;;41.28;22.65;;;;;;;4.38;100.00;97863.55;4009454;87;25738;-87
2022/11/22 15:30:35;;;;;;;61.23;29.92;;;;;;;4.11;100.00;97857.05;4084059;85;21998;-87
2022/11/22 15:43:43;;;;;;;51.33;25.80;;;;;;;4.04;100.00;97864.47;4148974;85;21041;-86
2022/11/22 15:56:39;;;;;;;53.87;30.12;;;;;;;3.97;100.00;97879.80;4173059;83;21045;-86
2022/11/22 16:02:46;;;;;;;84.00;40.73;;;;;;;3.82;100.00;97882.04;4168834;83;20946;-87
2022/11/22 16:08:52;;;;;;;97.17;41.75;;;;;;;3.68;100.00;97878.46;4199507;83;21100;-85
2022/11/22 16:15:35;;;;;;;68.55;33.48;;;;;;;3.59;100.00;97868.98;4175145;83;21165;-86
2022/11/22 16:29:35;;;;;;;56.73;31.93;;;;;;;3.54;100.00;97881.47;4228321;83;21012;-87
2022/11/22 16:35:38;;;;;;;55.98;31.15;;;;;;;3.51;100.00;97876.19;4154010;83;21117;-86
2022/11/22 16:55:00;;;;;;;58.02;33.05;;;;;;;3.34;100.00;97890.68;4205796;84;21060;-87
2022/11/22 17:01:02;;;;;;;58.00;32.45;;;;;;;3.28;100.00;97888.05;4202280;83;21011;-88
2022/11/22 17:07:09;;;;;;;56.40;32.00;;;;;;;3.23;100.00;97891.05;4172088;83;21068;-86
2022/11/22 17:26:39;;;;;;;48.17;26.82;;;;;;;2.97;100.00;97880.80;4232057;83;21475;-86
2022/11/22 17:39:54;;;;;;;59.63;32.88;;;;;;;2.71;100.00;97883.28;4240975;84;21064;-86
2022/11/22 17:53:03;;;;;;;43.13;23.25;;;;;;;2.33;100.00;97886.60;4234867;84;20988;-86
2022/11/22 18:06:14;;;;;;;44.00;24.57;;;;;;;2.03;100.00;97897.56;4215152;83;21040;-86
2022/11/22 18:19:26;;;;;;;58.85;33.63;;;;;;;1.68;100.00;97909.31;4213021;84;21039;-86
2022/11/22 18:32:47;;;;;;;44.88;24.92;;;;;;;1.41;100.00;97918.36;4239745;82;21001;-86
2022/11/22 18:38:49;;;;;;;56.28;29.27;;;;;;;1.30;100.00;97909.75;4267932;81;21089;-86
2022/11/22 18:45:07;;;;;;;49.42;27.80;;;;;;;1.23;100.00;97913.58;4193770;83;21017;-86
2022/11/22 18:51:21;;;;;;;44.88;24.82;;;;;;;1.14;100.00;97909.64;4194221;83;21033;-86
2022/11/22 18:57:38;;;;;;;48.00;25.62;;;;;;;1.07;100.00;97919.43;4304650;81;21009;-86
2022/11/22 19:10:32;;;;;;;47.78;24.85;;;;;;;0.97;100.00;97920.67;4331809;81;21045;-86
2022/11/22 19:16:34;;;;;;;42.30;24.27;;;;;;;0.96;100.00;97918.31;4309802;81;21056;-86
2022/11/22 19:22:35;;;;;;;43.63;24.30;;;;;;;0.96;100.00;97912.92;4284689;81;21017;-87
2022/11/22 19:28:54;;;;;;;56.53;28.57;;;;;;;0.95;100.00;97918.10;4235718;82;21555;-87
2022/11/22 19:42:03;;;;;;;55.05;27.52;;;;;;;0.85;100.00;97936.85;4251437;81;21130;-86
2022/11/22 19:54:53;;;;;;;52.60;26.20;;;;;;;0.75;100.00;97948.06;4213454;83;21069;-86
2022/11/22 20:00:55;;;;;;;53.28;29.07;;;;;;;0.68;100.00;97949.74;4229593;82;21044;-86
2022/11/22 20:06:58;;;;;;;54.15;28.77;;;;;;;0.63;100.00;97952.65;4249764;82;21043;-86
2022/11/22 20:13:10;;;;;;;53.30;28.35;;;;;;;0.61;100.00;97961.64;4235155;82;21621;-87
2022/11/22 20:19:14;;;;;;;56.23;28.20;;;;;;;0.44;100.00;97944.34;4230087;83;21016;-87
2022/11/22 20:25:22;;;;;;;91.50;40.40;;;;;;;0.44;100.00;97945.69;4191083;84;20992;-87
2022/11/22 20:31:25;;;;;;;61.18;32.33;;;;;;;0.34;100.00;97952.28;4188989;82;20988;-86
2022/11/22 20:37:26;;;;;;;58.40;30.97;;;;;;;0.31;100.00;97962.92;4204006;84;21672;-86
2022/11/22 20:43:30;;;;;;;57.33;31.02;;;;;;;0.28;100.00;97959.00;4214373;83;21851;-86
2022/11/22 20:49:31;;;;;;;53.58;30.02;;;;;;;0.23;100.00;97955.17;4248269;82;21048;-86
2022/11/22 20:55:40;;;;;;;66.77;32.38;;;;;;;0.20;100.00;97961.22;4224942;82;21010;-86
2022/11/22 21:01:43;;;;;;;60.63;32.58;;;;;;;0.20;100.00;97957.19;4179043;83;21062;-86
2022/11/22 21:21:24;;;;;;;63.17;32.05;;;;;;;0.08;100.00;97971.16;4285191;81;21063;-87
2022/11/22 21:34:32;;;;;;;63.00;33.90;;;;;;;0.02;100.00;97981.91;4259738;82;21514;-86
2022/11/22 21:40:34;;;;;;;67.40;34.80;;;;;;;-0.05;100.00;97964.95;4251250;81;22040;-86
2022/11/22 21:46:35;;;;;;;67.15;32.25;;;;;;;0.06;100.00;97973.39;4196301;82;21055;-86
2022/11/22 21:52:38;;;;;;;66.28;32.60;;;;;;;0.02;100.00;97978.63;4243580;81;21022;-86
2022/11/22 21:58:41;;;;;;;68.75;32.63;;;;;;;0.02;100.00;97978.63;4256885;81;21083;-86
2022/11/22 22:04:42;;;;;;;72.87;35.55;;;;;;;0.00;100.00;97980.31;4264570;81;21349;-86
2022/11/22 22:10:48;;;;;;;68.83;33.67;;;;;;;0.01;100.00;97974.38;4249617;81;21252;-86
2022/11/22 22:16:49;;;;;;;49.77;25.07;;;;;;;-0.10;100.00;97953.83;4264636;81;21569;-86
2022/11/22 22:22:51;;;;;;;77.78;35.55;;;;;;;-0.13;100.00;97947.77;4235136;82;21419;-86
2022/11/22 22:28:52;;;;;;;70.72;34.18;;;;;;;-0.03;100.00;97976.14;4266694;81;21492;-85
2022/11/22 22:34:53;;;;;;;74.92;36.63;;;;;;;-0.05;100.00;97979.16;4268579;80;21045;-86
2022/11/22 22:41:19;;;;;;;79.72;36.90;;;;;;;-0.08;100.00;97987.13;4222519;82;21706;-86
2022/11/22 22:47:20;;;;;;;70.90;34.23;;;;;;;-0.17;100.00;97979.67;4207320;83;21014;-87
2022/11/22 22:53:21;;;;;;;73.65;34.30;;;;;;;-0.20;100.00;97982.47;4268210;81;21026;-86
2022/11/22 22:59:22;;;;;;;72.65;34.38;;;;;;;-0.20;100.00;97982.47;4205283;83;21555;-86
2022/11/22 23:05:24;;;;;;;73.62;33.18;;;;;;;-0.23;100.00;97983.67;4188483;83;21004;-87
2022/11/22 23:24:49;;;;;;;78.40;34.13;;;;;;;-0.25;100.00;97986.70;4179650;83;21071;-86
2022/11/22 23:30:51;;;;;;;72.60;33.00;;;;;;;-0.23;100.00;97981.78;4233369;81;21500;-86
2022/11/22 23:36:52;;;;;;;74.75;33.67;;;;;;;-0.28;100.00;97977.94;4158876;84;21117;-86
2022/11/22 23:42:57;;;;;;;83.30;33.63;;;;;;;-0.34;100.00;97968.50;4257682;82;21016;-86
2022/11/22 23:49:01;;;;;;;70.03;30.00;;;;;;;-0.37;100.00;97969.16;4189662;83;21480;-86
